logo dgac
Lunes 25 de Junio del 2018
Buscar por aerodromo o helipuerto
Ingrese nombre de aeródromo, localidad o designador OACI:
TAF: TAF SCBA 250414Z 2506/2606 30018KT 9999 BKN045 TN02/2509Z TX06/2518Z TEMPO 2509/2517 8000 -SHRA BKN030 BECMG 2519/2521 CAVOK
TAF del 25/06/2018 a las 04:14 UTC
Período de validez: desde el 25 a las 06:00 UTC hasta el 26 a las 06:00 UTC
Viento: dirección 300 grados, velocidad 18 nudos
Visibilidad: 10 km o más
Nubes: Nublado a 4500 pies sobre el nivel del aeródromo
Temperatura mínima: 2ºC el 25 a las 09:00 UTC
Temperatura máxima: 6ºC el 25 a las 18:00 UTC
Se espera en forma temporal entre las 09:00 UTC del 25 y las 17:00 UTC del 25:
Visibilidad: 8000 metros
Débil ChubascosLluvia
Nubes: Nublado a 3000 pies sobre el nivel del aeródromo
Se espera un cambio entre las 19:00 UTC del 25 y las 21:00 UTC del 25, :
Visibilidad: 10 km o más,
    sin nubes bajo los 5.000 pies o bajo del MSA (Mínimo de Seguridad del Aeródromo),
    sin cumulonimbus, y sin fenómenos de tiempo significativo en el aeródromo o alrededores